sensor_id;sensor_type;location;lat;lon;timestamp;temperature;humidity
1049;DHT22;513;51.444;7.196;2022-11-15T00:00:29;10.30;99.90
1049;DHT22;513;51.444;7.196;2022-11-15T00:02:56;10.40;99.90
1049;DHT22;513;51.444;7.196;2022-11-15T00:05:23;10.40;99.90
1049;DHT22;513;51.444;7.196;2022-11-15T00:07:51;10.40;99.90
1049;DHT22;513;51.444;7.196;2022-11-15T00:10:18;10.50;99.90
1049;DHT22;513;51.444;7.196;2022-11-15T00:12:44;10.50;99.90
1049;DHT22;513;51.444;7.196;2022-11-15T00:15:11;10.50;99.90
1049;DHT22;513;51.444;7.196;2022-11-15T00:17:37;10.50;99.90
1049;DHT22;513;51.444;7.196;2022-11-15T00:20:05;10.60;99.90
1049;DHT22;513;51.444;7.196;2022-11-15T00:22:32;10.70;99.90
1049;DHT22;513;51.444;7.196;2022-11-15T00:25:00;10.70;99.90
1049;DHT22;513;51.444;7.196;2022-11-15T00:27:27;10.80;99.90
1049;DHT22;513;51.444;7.196;2022-11-15T00:29:54;10.80;99.90
1049;DHT22;513;51.444;7.196;2022-11-15T00:32:20;10.90;99.90
1049;DHT22;513;51.444;7.196;2022-11-15T00:34:47;10.90;99.90
1049;DHT22;513;51.444;7.196;2022-11-15T00:37:14;11.00;99.90
1049;DHT22;513;51.444;7.196;2022-11-15T00:39:40;11.10;99.90
1049;DHT22;513;51.444;7.196;2022-11-15T00:42:08;11.10;99.90
1049;DHT22;513;51.444;7.196;2022-11-15T00:44:35;11.20;99.90
1049;DHT22;513;51.444;7.196;2022-11-15T00:47:02;11.30;99.90
1049;DHT22;513;51.444;7.196;2022-11-15T00:49:28;11.30;99.90
1049;DHT22;513;51.444;7.196;2022-11-15T00:51:55;11.30;99.90
1049;DHT22;513;51.444;7.196;2022-11-15T00:54:21;11.30;99.90
1049;DHT22;513;51.444;7.196;2022-11-15T00:56:48;11.40;99.90
1049;DHT22;513;51.444;7.196;2022-11-15T00:59:16;11.40;99.90
1049;DHT22;513;51.444;7.196;2022-11-15T01:01:43;11.40;99.90
1049;DHT22;513;51.444;7.196;2022-11-15T01:04:09;11.50;99.90
1049;DHT22;513;51.444;7.196;2022-11-15T01:06:36;11.50;99.90
1049;DHT22;513;51.444;7.196;2022-11-15T01:09:03;11.60;99.90
1049;DHT22;513;51.444;7.196;2022-11-15T01:11:30;11.60;99.90
1049;DHT22;513;51.444;7.196;2022-11-15T01:13:56;11.60;99.90
1049;DHT22;513;51.444;7.196;2022-11-15T01:16:24;11.70;99.90
1049;DHT22;513;51.444;7.196;2022-11-15T01:18:51;11.70;99.90
1049;DHT22;513;51.444;7.196;2022-11-15T01:21:18;11.70;99.90
1049;DHT22;513;51.444;7.196;2022-11-15T01:23:45;11.70;99.90
1049;DHT22;513;51.444;7.196;2022-11-15T01:26:13;11.70;99.90
1049;DHT22;513;51.444;7.196;2022-11-15T01:28:41;11.70;99.90
1049;DHT22;513;51.444;7.196;2022-11-15T01:31:11;11.80;99.90
1049;DHT22;513;51.444;7.196;2022-11-15T01:33:40;11.80;99.90
1049;DHT22;513;51.444;7.196;2022-11-15T01:36:10;11.80;99.90
1049;DHT22;513;51.444;7.196;2022-11-15T01:38:37;11.80;99.90
1049;DHT22;513;51.444;7.196;2022-11-15T01:41:04;11.80;99.90
1049;DHT22;513;51.444;7.196;2022-11-15T01:43:32;11.80;99.90
1049;DHT22;513;51.444;7.196;2022-11-15T01:46:02;11.80;99.90
1049;DHT22;513;51.444;7.196;2022-11-15T01:48:33;11.80;99.90
1049;DHT22;513;51.444;7.196;2022-11-15T01:51:04;11.80;99.90
1049;DHT22;513;51.444;7.196;2022-11-15T01:53:34;11.80;99.90
1049;DHT22;513;51.444;7.196;2022-11-15T01:56:05;11.80;99.90
1049;DHT22;513;51.444;7.196;2022-11-15T01:58:33;11.90;99.90
1049;DHT22;513;51.444;7.196;2022-11-15T02:01:01;11.90;99.90
1049;DHT22;513;51.444;7.196;2022-11-15T02:03:34;11.90;99.90
1049;DHT22;513;51.444;7.196;2022-11-15T02:06:05;12.00;99.90
1049;DHT22;513;51.444;7.196;2022-11-15T02:08:32;12.00;99.90
1049;DHT22;513;51.444;7.196;2022-11-15T02:10:58;12.00;99.90
1049;DHT22;513;51.444;7.196;2022-11-15T02:13:25;12.00;99.90
1049;DHT22;513;51.444;7.196;2022-11-15T02:16:00;12.00;99.90
1049;DHT22;513;51.444;7.196;2022-11-15T02:18:35;12.00;99.90
1049;DHT22;513;51.444;7.196;2022-11-15T02:21:13;12.00;99.90
1049;DHT22;513;51.444;7.196;2022-11-15T02:24:03;12.00;99.90
1049;DHT22;513;51.444;7.196;2022-11-15T02:27:03;12.00;99.90
1049;DHT22;513;51.444;7.196;2022-11-15T02:29:48;12.10;99.90
1049;DHT22;513;51.444;7.196;2022-11-15T02:32:28;12.00;99.90
1049;DHT22;513;51.444;7.196;2022-11-15T02:35:02;12.00;99.90
1049;DHT22;513;51.444;7.196;2022-11-15T02:37:36;12.00;99.90
1049;DHT22;513;51.444;7.196;2022-11-15T02:40:10;12.10;99.90
1049;DHT22;513;51.444;7.196;2022-11-15T02:42:43;12.10;99.90
1049;DHT22;513;51.444;7.196;2022-11-15T02:45:31;12.00;99.90
1049;DHT22;513;51.444;7.196;2022-11-15T02:48:04;12.00;99.90
1049;DHT22;513;51.444;7.196;2022-11-15T02:50:32;11.90;99.90
1049;DHT22;513;51.444;7.196;2022-11-15T02:52:59;12.00;99.90
1049;DHT22;513;51.444;7.196;2022-11-15T02:55:29;11.90;99.90
1049;DHT22;513;51.444;7.196;2022-11-15T02:58:19;11.80;99.90
1049;DHT22;513;51.444;7.196;2022-11-15T03:00:54;11.80;99.90
1049;DHT22;513;51.444;7.196;2022-11-15T03:03:46;11.80;99.90
1049;DHT22;513;51.444;7.196;2022-11-15T03:06:22;11.80;99.90
1049;DHT22;513;51.444;7.196;2022-11-15T03:08:58;11.80;99.90
1049;DHT22;513;51.444;7.196;2022-11-15T03:11:29;11.80;99.90
1049;DHT22;513;51.444;7.196;2022-11-15T03:14:04;11.80;99.90
1049;DHT22;513;51.444;7.196;2022-11-15T03:16:37;11.80;99.90
1049;DHT22;513;51.444;7.196;2022-11-15T03:19:12;11.80;99.90
1049;DHT22;513;51.444;7.196;2022-11-15T03:21:39;11.80;99.90
1049;DHT22;513;51.444;7.196;2022-11-15T03:24:08;11.90;99.90
1049;DHT22;513;51.444;7.196;2022-11-15T03:26:36;11.90;99.90
1049;DHT22;513;51.444;7.196;2022-11-15T03:29:07;11.90;99.90
1049;DHT22;513;51.444;7.196;2022-11-15T03:31:38;11.90;99.90
1049;DHT22;513;51.444;7.196;2022-11-15T03:34:22;12.00;99.90
1049;DHT22;513;51.444;7.196;2022-11-15T03:36:52;12.00;99.90
1049;DHT22;513;51.444;7.196;2022-11-15T03:39:20;12.00;99.90
1049;DHT22;513;51.444;7.196;2022-11-15T03:41:50;12.00;99.90
1049;DHT22;513;51.444;7.196;2022-11-15T03:44:31;12.00;99.90
1049;DHT22;513;51.444;7.196;2022-11-15T03:47:03;12.00;99.90
1049;DHT22;513;51.444;7.196;2022-11-15T03:49:35;12.00;99.90
1049;DHT22;513;51.444;7.196;2022-11-15T03:52:04;12.00;99.90
1049;DHT22;513;51.444;7.196;2022-11-15T03:54:31;12.10;99.90
1049;DHT22;513;51.444;7.196;2022-11-15T03:56:57;12.10;99.90
1049;DHT22;513;51.444;7.196;2022-11-15T03:59:24;12.10;99.90
1049;DHT22;513;51.444;7.196;2022-11-15T04:01:50;12.00;99.90
1049;DHT22;513;51.444;7.196;2022-11-15T04:04:17;12.10;99.90
1049;DHT22;513;51.444;7.196;2022-11-15T04:06:45;12.10;99.90
1049;DHT22;513;51.444;7.196;2022-11-15T04:09:13;12.10;99.90
1049;DHT22;513;51.444;7.196;2022-11-15T04:11:39;12.10;99.90
1049;DHT22;513;51.444;7.196;2022-11-15T04:14:06;12.10;99.90
1049;DHT22;513;51.444;7.196;2022-11-15T04:16:33;12.10;99.90
1049;DHT22;513;51.444;7.196;2022-11-15T04:18:59;12.10;99.90
1049;DHT22;513;51.444;7.196;2022-11-15T04:21:45;12.10;99.90
1049;DHT22;513;51.444;7.196;2022-11-15T04:24:29;12.20;99.90
1049;DHT22;513;51.444;7.196;2022-11-15T04:26:56;12.10;99.90
1049;DHT22;513;51.444;7.196;2022-11-15T04:29:22;12.10;99.90
1049;DHT22;513;51.444;7.196;2022-11-15T04:32:01;12.10;99.90
1049;DHT22;513;51.444;7.196;2022-11-15T04:34:28;12.10;99.90
1049;DHT22;513;51.444;7.196;2022-11-15T04:36:56;12.10;99.90
1049;DHT22;513;51.444;7.196;2022-11-15T04:39:38;12.10;99.90
1049;DHT22;513;51.444;7.196;2022-11-15T04:42:04;12.10;99.90
1049;DHT22;513;51.444;7.196;2022-11-15T04:44:31;12.10;99.90
1049;DHT22;513;51.444;7.196;2022-11-15T04:46:59;12.10;99.90
1049;DHT22;513;51.444;7.196;2022-11-15T04:49:25;12.10;99.90
1049;DHT22;513;51.444;7.196;2022-11-15T04:51:52;12.10;99.90
1049;DHT22;513;51.444;7.196;2022-11-15T04:54:20;12.10;99.90
1049;DHT22;513;51.444;7.196;2022-11-15T04:56:47;12.10;99.90
1049;DHT22;513;51.444;7.196;2022-11-15T04:59:13;12.10;99.90
1049;DHT22;513;51.444;7.196;2022-11-15T05:01:40;12.20;99.90
1049;DHT22;513;51.444;7.196;2022-11-15T05:04:07;12.20;99.90
1049;DHT22;513;51.444;7.196;2022-11-15T05:06:45;12.20;99.90
1049;DHT22;513;51.444;7.196;2022-11-15T05:09:12;12.20;99.90
1049;DHT22;513;51.444;7.196;2022-11-15T05:11:41;12.20;99.90
1049;DHT22;513;51.444;7.196;2022-11-15T05:14:07;12.20;99.90
1049;DHT22;513;51.444;7.196;2022-11-15T05:16:34;12.10;99.90
1049;DHT22;513;51.444;7.196;2022-11-15T05:19:01;12.10;99.90
1049;DHT22;513;51.444;7.196;2022-11-15T05:21:28;12.10;99.90
1049;DHT22;513;51.444;7.196;2022-11-15T05:23:55;12.20;99.90
1049;DHT22;513;51.444;7.196;2022-11-15T05:26:22;12.10;99.90
1049;DHT22;513;51.444;7.196;2022-11-15T05:28:53;12.10;99.90
1049;DHT22;513;51.444;7.196;2022-11-15T05:31:21;12.10;99.90
1049;DHT22;513;51.444;7.196;2022-11-15T05:33:49;12.10;99.90
1049;DHT22;513;51.444;7.196;2022-11-15T05:36:20;12.10;99.90
1049;DHT22;513;51.444;7.196;2022-11-15T05:38:48;12.20;99.90
1049;DHT22;513;51.444;7.196;2022-11-15T05:41:16;12.20;99.90
1049;DHT22;513;51.444;7.196;2022-11-15T05:43:43;12.10;99.90
1049;DHT22;513;51.444;7.196;2022-11-15T05:46:12;12.20;99.90
1049;DHT22;513;51.444;7.196;2022-11-15T05:48:41;12.20;99.90
1049;DHT22;513;51.444;7.196;2022-11-15T05:51:09;12.20;99.90
1049;DHT22;513;51.444;7.196;2022-11-15T05:53:38;12.20;99.90
1049;DHT22;513;51.444;7.196;2022-11-15T05:56:05;12.10;99.90
1049;DHT22;513;51.444;7.196;2022-11-15T05:58:32;12.20;99.90
1049;DHT22;513;51.444;7.196;2022-11-15T06:00:59;12.10;99.90
1049;DHT22;513;51.444;7.196;2022-11-15T06:03:28;12.10;99.90
1049;DHT22;513;51.444;7.196;2022-11-15T06:05:55;12.00;99.90
1049;DHT22;513;51.444;7.196;2022-11-15T06:08:22;12.00;99.90
1049;DHT22;513;51.444;7.196;2022-11-15T06:10:49;11.90;99.90
1049;DHT22;513;51.444;7.196;2022-11-15T06:13:15;11.90;99.90
1049;DHT22;513;51.444;7.196;2022-11-15T06:15:42;11.90;99.90
1049;DHT22;513;51.444;7.196;2022-11-15T06:18:09;11.90;99.90
1049;DHT22;513;51.444;7.196;2022-11-15T06:20:37;11.90;99.90
1049;DHT22;513;51.444;7.196;2022-11-15T06:23:04;12.00;99.90
1049;DHT22;513;51.444;7.196;2022-11-15T06:25:31;12.00;99.90
1049;DHT22;513;51.444;7.196;2022-11-15T06:27:58;12.00;99.90
1049;DHT22;513;51.444;7.196;2022-11-15T06:30:26;12.00;99.90
1049;DHT22;513;51.444;7.196;2022-11-15T06:32:59;12.00;99.90
1049;DHT22;513;51.444;7.196;2022-11-15T06:35:27;12.00;99.90
1049;DHT22;513;51.444;7.196;2022-11-15T06:37:55;12.00;99.90
1049;DHT22;513;51.444;7.196;2022-11-15T06:40:22;12.10;99.90
1049;DHT22;513;51.444;7.196;2022-11-15T06:42:48;12.10;99.90
1049;DHT22;513;51.444;7.196;2022-11-15T06:45:15;12.10;99.90
1049;DHT22;513;51.444;7.196;2022-11-15T06:47:45;12.10;99.90
1049;DHT22;513;51.444;7.196;2022-11-15T06:50:12;12.20;99.90
1049;DHT22;513;51.444;7.196;2022-11-15T06:52:39;12.20;99.90
1049;DHT22;513;51.444;7.196;2022-11-15T06:55:08;12.20;99.90
1049;DHT22;513;51.444;7.196;2022-11-15T06:57:35;12.30;99.90
1049;DHT22;513;51.444;7.196;2022-11-15T07:00:03;12.30;99.90
1049;DHT22;513;51.444;7.196;2022-11-15T07:02:31;12.30;99.90
1049;DHT22;513;51.444;7.196;2022-11-15T07:04:57;12.20;99.90
1049;DHT22;513;51.444;7.196;2022-11-15T07:07:24;12.20;99.90
1049;DHT22;513;51.444;7.196;2022-11-15T07:09:51;12.30;99.90
1049;DHT22;513;51.444;7.196;2022-11-15T07:12:19;12.30;99.90
1049;DHT22;513;51.444;7.196;2022-11-15T07:14:45;12.30;99.90
1049;DHT22;513;51.444;7.196;2022-11-15T07:17:12;12.30;99.90
1049;DHT22;513;51.444;7.196;2022-11-15T07:19:39;12.30;99.90
1049;DHT22;513;51.444;7.196;2022-11-15T07:22:05;12.20;99.90
1049;DHT22;513;51.444;7.196;2022-11-15T07:24:32;12.20;99.90
1049;DHT22;513;51.444;7.196;2022-11-15T07:26:59;12.20;99.90
1049;DHT22;513;51.444;7.196;2022-11-15T07:29:27;12.10;99.90
1049;DHT22;513;51.444;7.196;2022-11-15T07:31:54;12.10;99.90
1049;DHT22;513;51.444;7.196;2022-11-15T07:34:21;12.10;99.90
1049;DHT22;513;51.444;7.196;2022-11-15T07:36:47;12.10;99.90
1049;DHT22;513;51.444;7.196;2022-11-15T07:39:14;12.00;99.90
1049;DHT22;513;51.444;7.196;2022-11-15T07:41:41;12.00;99.90
1049;DHT22;513;51.444;7.196;2022-11-15T07:44:08;12.00;99.90
1049;DHT22;513;51.444;7.196;2022-11-15T07:46:36;11.90;99.90
1049;DHT22;513;51.444;7.196;2022-11-15T07:49:03;11.90;99.90
1049;DHT22;513;51.444;7.196;2022-11-15T07:51:30;11.90;99.90
1049;DHT22;513;51.444;7.196;2022-11-15T07:53:57;11.90;99.90
1049;DHT22;513;51.444;7.196;2022-11-15T07:56:23;11.90;99.90
1049;DHT22;513;51.444;7.196;2022-11-15T07:58:50;11.80;99.90
1049;DHT22;513;51.444;7.196;2022-11-15T08:01:17;11.80;99.90
1049;DHT22;513;51.444;7.196;2022-11-15T08:03:44;11.90;99.90
1049;DHT22;513;51.444;7.196;2022-11-15T08:06:11;11.90;99.90
1049;DHT22;513;51.444;7.196;2022-11-15T08:08:38;11.90;99.90
1049;DHT22;513;51.444;7.196;2022-11-15T08:11:04;11.90;99.90
1049;DHT22;513;51.444;7.196;2022-11-15T08:13:31;12.00;99.90
1049;DHT22;513;51.444;7.196;2022-11-15T08:15:59;12.00;99.90
1049;DHT22;513;51.444;7.196;2022-11-15T08:18:25;12.00;99.90
1049;DHT22;513;51.444;7.196;2022-11-15T08:20:57;12.00;99.90
1049;DHT22;513;51.444;7.196;2022-11-15T08:23:24;12.00;99.90
1049;DHT22;513;51.444;7.196;2022-11-15T08:25:51;12.10;99.90
1049;DHT22;513;51.444;7.196;2022-11-15T08:28:18;12.10;99.90
1049;DHT22;513;51.444;7.196;2022-11-15T08:30:44;12.10;99.90
1049;DHT22;513;51.444;7.196;2022-11-15T08:33:12;12.10;99.90
1049;DHT22;513;51.444;7.196;2022-11-15T08:35:39;12.10;99.90
1049;DHT22;513;51.444;7.196;2022-11-15T08:38:07;12.10;99.90
1049;DHT22;513;51.444;7.196;2022-11-15T08:40:34;12.20;99.90
1049;DHT22;513;51.444;7.196;2022-11-15T08:43:01;12.20;99.90
1049;DHT22;513;51.444;7.196;2022-11-15T08:45:28;12.30;99.90
1049;DHT22;513;51.444;7.196;2022-11-15T08:47:55;12.20;99.90
1049;DHT22;513;51.444;7.196;2022-11-15T08:50:22;12.30;99.90
1049;DHT22;513;51.444;7.196;2022-11-15T08:52:49;12.30;99.90
1049;DHT22;513;51.444;7.196;2022-11-15T08:55:17;12.30;99.70
1049;DHT22;513;51.444;7.196;2022-11-15T08:57:44;12.30;90.30
1049;DHT22;513;51.444;7.196;2022-11-15T09:00:11;12.30;86.40
1049;DHT22;513;51.444;7.196;2022-11-15T09:02:39;12.30;69.30
1049;DHT22;513;51.444;7.196;2022-11-15T09:05:07;12.30;63.00
1049;DHT22;513;51.444;7.196;2022-11-15T09:07:35;12.30;58.80
1049;DHT22;513;51.444;7.196;2022-11-15T09:10:01;12.20;58.30
1049;DHT22;513;51.444;7.196;2022-11-15T09:12:30;12.20;57.60
1049;DHT22;513;51.444;7.196;2022-11-15T09:14:57;12.30;54.80
1049;DHT22;513;51.444;7.196;2022-11-15T09:17:24;12.30;44.60
1049;DHT22;513;51.444;7.196;2022-11-15T09:19:51;12.30;30.50
1049;DHT22;513;51.444;7.196;2022-11-15T09:22:17;12.30;29.50
1049;DHT22;513;51.444;7.196;2022-11-15T09:24:44;12.30;17.40
1049;DHT22;513;51.444;7.196;2022-11-15T09:27:11;12.40;25.90
1049;DHT22;513;51.444;7.196;2022-11-15T09:29:40;12.40;17.20
1049;DHT22;513;51.444;7.196;2022-11-15T09:32:06;12.50;21.40
1049;DHT22;513;51.444;7.196;2022-11-15T09:34:33;12.50;13.80
1049;DHT22;513;51.444;7.196;2022-11-15T09:37:00;12.40;7.30
1049;DHT22;513;51.444;7.196;2022-11-15T09:39:27;12.40;4.10
1049;DHT22;513;51.444;7.196;2022-11-15T09:42:20;12.40;6.30
1049;DHT22;513;51.444;7.196;2022-11-15T09:45:06;12.50;1.00
1049;DHT22;513;51.444;7.196;2022-11-15T09:50:39;12.70;1.00
1049;DHT22;513;51.444;7.196;2022-11-15T09:53:11;12.80;1.00
1049;DHT22;513;51.444;7.196;2022-11-15T09:55:44;12.80;1.00
1049;DHT22;513;51.444;7.196;2022-11-15T09:58:18;13.00;1.00
1049;DHT22;513;51.444;7.196;2022-11-15T10:00:49;13.00;1.00
1049;DHT22;513;51.444;7.196;2022-11-15T10:03:26;13.20;1.00
1049;DHT22;513;51.444;7.196;2022-11-15T10:05:56;13.10;1.00
1049;DHT22;513;51.444;7.196;2022-11-15T10:08:33;13.00;1.00
1049;DHT22;513;51.444;7.196;2022-11-15T10:11:04;12.80;1.00
1049;DHT22;513;51.444;7.196;2022-11-15T10:13:33;12.80;1.00
1049;DHT22;513;51.444;7.196;2022-11-15T10:16:10;12.80;1.00
1049;DHT22;513;51.444;7.196;2022-11-15T10:18:47;12.80;1.00
1049;DHT22;513;51.444;7.196;2022-11-15T10:21:17;13.00;99.90
1049;DHT22;513;51.444;7.196;2022-11-15T10:23:46;12.90;99.90
1049;DHT22;513;51.444;7.196;2022-11-15T10:26:16;12.90;99.90
1049;DHT22;513;51.444;7.196;2022-11-15T10:28:43;12.90;99.90
1049;DHT22;513;51.444;7.196;2022-11-15T10:31:22;12.90;99.90
1049;DHT22;513;51.444;7.196;2022-11-15T10:33:50;12.90;92.20
1049;DHT22;513;51.444;7.196;2022-11-15T10:36:20;13.00;1.00
1049;DHT22;513;51.444;7.196;2022-11-15T10:38:53;12.90;1.00
1049;DHT22;513;51.444;7.196;2022-11-15T10:41:22;13.00;2.90
1049;DHT22;513;51.444;7.196;2022-11-15T10:44:07;13.00;21.60
1049;DHT22;513;51.444;7.196;2022-11-15T10:46:38;12.90;1.00
1049;DHT22;513;51.444;7.196;2022-11-15T10:49:15;13.00;99.90
1049;DHT22;513;51.444;7.196;2022-11-15T10:51:46;13.10;1.00
1049;DHT22;513;51.444;7.196;2022-11-15T10:54:19;13.20;99.90
1049;DHT22;513;51.444;7.196;2022-11-15T10:56:50;13.20;1.00
1049;DHT22;513;51.444;7.196;2022-11-15T10:59:24;13.10;98.90
1049;DHT22;513;51.444;7.196;2022-11-15T11:01:53;13.20;1.00
1049;DHT22;513;51.444;7.196;2022-11-15T11:04:21;13.30;99.90
1049;DHT22;513;51.444;7.196;2022-11-15T11:06:49;13.30;99.90
1049;DHT22;513;51.444;7.196;2022-11-15T11:09:28;13.30;99.90
1049;DHT22;513;51.444;7.196;2022-11-15T11:11:55;13.40;1.00
1049;DHT22;513;51.444;7.196;2022-11-15T11:14:23;13.50;1.00
1049;DHT22;513;51.444;7.196;2022-11-15T11:16:56;13.60;1.00
1049;DHT22;513;51.444;7.196;2022-11-15T11:19:46;13.70;1.00
1049;DHT22;513;51.444;7.196;2022-11-15T11:22:20;13.50;52.60
1049;DHT22;513;51.444;7.196;2022-11-15T11:24:56;13.50;12.00
1049;DHT22;513;51.444;7.196;2022-11-15T11:27:43;13.60;1.00
1049;DHT22;513;51.444;7.196;2022-11-15T11:30:15;13.60;1.00
1049;DHT22;513;51.444;7.196;2022-11-15T11:33:02;13.70;99.90
1049;DHT22;513;51.444;7.196;2022-11-15T11:35:36;13.80;99.90
1049;DHT22;513;51.444;7.196;2022-11-15T11:38:18;13.80;99.90
1049;DHT22;513;51.444;7.196;2022-11-15T11:40:58;13.90;63.20
1049;DHT22;513;51.444;7.196;2022-11-15T11:43:30;14.00;1.00
1049;DHT22;513;51.444;7.196;2022-11-15T11:46:14;14.00;1.00
1049;DHT22;513;51.444;7.196;2022-11-15T11:48:47;14.10;1.00
1049;DHT22;513;51.444;7.196;2022-11-15T11:51:20;14.20;1.00
1049;DHT22;513;51.444;7.196;2022-11-15T11:53:54;14.20;1.00
1049;DHT22;513;51.444;7.196;2022-11-15T11:56:27;14.20;99.90
1049;DHT22;513;51.444;7.196;2022-11-15T11:58:59;14.20;99.90
1049;DHT22;513;51.444;7.196;2022-11-15T12:01:30;14.00;99.90
1049;DHT22;513;51.444;7.196;2022-11-15T12:04:04;14.10;99.90
1049;DHT22;513;51.444;7.196;2022-11-15T12:06:35;14.00;99.90
1049;DHT22;513;51.444;7.196;2022-11-15T12:09:11;14.00;99.90
1049;DHT22;513;51.444;7.196;2022-11-15T12:11:47;14.00;99.90
1049;DHT22;513;51.444;7.196;2022-11-15T12:14:25;14.10;99.90
1049;DHT22;513;51.444;7.196;2022-11-15T12:16:54;14.10;99.90
1049;DHT22;513;51.444;7.196;2022-11-15T12:19:22;14.10;99.90
1049;DHT22;513;51.444;7.196;2022-11-15T12:21:54;14.10;99.90
1049;DHT22;513;51.444;7.196;2022-11-15T12:24:25;14.10;99.90
1049;DHT22;513;51.444;7.196;2022-11-15T12:26:56;14.00;99.90
1049;DHT22;513;51.444;7.196;2022-11-15T12:29:28;14.10;99.90
1049;DHT22;513;51.444;7.196;2022-11-15T12:31:57;14.10;99.90
1049;DHT22;513;51.444;7.196;2022-11-15T12:34:46;14.00;99.90
1049;DHT22;513;51.444;7.196;2022-11-15T12:37:46;14.00;99.90
1049;DHT22;513;51.444;7.196;2022-11-15T12:40:25;14.00;99.90
1049;DHT22;513;51.444;7.196;2022-11-15T12:45:52;14.30;99.90
1049;DHT22;513;51.444;7.196;2022-11-15T12:54:57;14.20;99.90
1049;DHT22;513;51.444;7.196;2022-11-15T12:57:36;14.10;99.90
1049;DHT22;513;51.444;7.196;2022-11-15T13:03:26;14.00;99.90
1049;DHT22;513;51.444;7.196;2022-11-15T13:06:05;14.00;99.90
1049;DHT22;513;51.444;7.196;2022-11-15T13:08:44;13.90;99.90
1049;DHT22;513;51.444;7.196;2022-11-15T13:11:45;13.90;99.90
1049;DHT22;513;51.444;7.196;2022-11-15T13:17:32;13.90;99.90
1049;DHT22;513;51.444;7.196;2022-11-15T13:23:02;13.80;99.90
1049;DHT22;513;51.444;7.196;2022-11-15T13:25:50;13.80;99.90
1049;DHT22;513;51.444;7.196;2022-11-15T13:28:24;13.80;99.90
1049;DHT22;513;51.444;7.196;2022-11-15T13:30:55;13.90;99.90
1049;DHT22;513;51.444;7.196;2022-11-15T13:33:25;13.90;99.90
1049;DHT22;513;51.444;7.196;2022-11-15T13:35:54;13.90;99.90
1049;DHT22;513;51.444;7.196;2022-11-15T13:38:27;13.90;99.90
1049;DHT22;513;51.444;7.196;2022-11-15T13:40:56;13.90;99.90
1049;DHT22;513;51.444;7.196;2022-11-15T13:43:30;13.80;99.90
1049;DHT22;513;51.444;7.196;2022-11-15T13:46:05;13.70;99.90
1049;DHT22;513;51.444;7.196;2022-11-15T13:48:32;13.60;99.90
1049;DHT22;513;51.444;7.196;2022-11-15T13:51:00;13.60;99.90
1049;DHT22;513;51.444;7.196;2022-11-15T13:53:28;13.50;1.00
1049;DHT22;513;51.444;7.196;2022-11-15T13:55:58;13.60;1.00
1049;DHT22;513;51.444;7.196;2022-11-15T13:58:25;13.60;1.00
1049;DHT22;513;51.444;7.196;2022-11-15T14:00:59;13.60;1.00
1049;DHT22;513;51.444;7.196;2022-11-15T14:03:28;13.60;1.00
1049;DHT22;513;51.444;7.196;2022-11-15T14:06:06;13.50;1.00
1049;DHT22;513;51.444;7.196;2022-11-15T14:08:36;13.50;1.00
1049;DHT22;513;51.444;7.196;2022-11-15T14:11:09;13.50;1.00
1049;DHT22;513;51.444;7.196;2022-11-15T14:13:37;13.50;1.00
1049;DHT22;513;51.444;7.196;2022-11-15T14:16:14;13.50;1.00
1049;DHT22;513;51.444;7.196;2022-11-15T14:18:44;13.40;1.00
1049;DHT22;513;51.444;7.196;2022-11-15T14:21:11;13.40;43.50
1049;DHT22;513;51.444;7.196;2022-11-15T14:23:39;13.40;96.60
1049;DHT22;513;51.444;7.196;2022-11-15T14:26:25;13.30;99.90
1049;DHT22;513;51.444;7.196;2022-11-15T14:28:52;13.30;99.90
1049;DHT22;513;51.444;7.196;2022-11-15T14:31:19;13.30;99.90
1049;DHT22;513;51.444;7.196;2022-11-15T14:33:47;13.30;99.90
1049;DHT22;513;51.444;7.196;2022-11-15T14:36:15;13.30;99.90
1049;DHT22;513;51.444;7.196;2022-11-15T14:38:42;13.20;99.90
1049;DHT22;513;51.444;7.196;2022-11-15T14:41:18;13.20;99.90
1049;DHT22;513;51.444;7.196;2022-11-15T14:43:45;13.30;99.90
1049;DHT22;513;51.444;7.196;2022-11-15T14:46:11;13.30;99.90
1049;DHT22;513;51.444;7.196;2022-11-15T14:48:38;13.20;99.90
1049;DHT22;513;51.444;7.196;2022-11-15T14:51:10;13.20;99.90
1049;DHT22;513;51.444;7.196;2022-11-15T14:53:37;13.30;99.90
1049;DHT22;513;51.444;7.196;2022-11-15T14:56:04;13.30;99.90
1049;DHT22;513;51.444;7.196;2022-11-15T14:58:32;13.30;1.00
1049;DHT22;513;51.444;7.196;2022-11-15T15:00:59;13.30;99.90
1049;DHT22;513;51.444;7.196;2022-11-15T15:03:26;13.20;1.00
1049;DHT22;513;51.444;7.196;2022-11-15T15:05:52;13.30;99.90
1049;DHT22;513;51.444;7.196;2022-11-15T15:08:19;13.20;1.00
1049;DHT22;513;51.444;7.196;2022-11-15T15:10:46;13.20;1.00
1049;DHT22;513;51.444;7.196;2022-11-15T15:13:17;13.20;1.00
1049;DHT22;513;51.444;7.196;2022-11-15T15:15:46;13.20;1.00
1049;DHT22;513;51.444;7.196;2022-11-15T15:18:13;13.20;1.00
1049;DHT22;513;51.444;7.196;2022-11-15T15:20:42;13.20;1.00
1049;DHT22;513;51.444;7.196;2022-11-15T15:23:15;13.20;1.00
1049;DHT22;513;51.444;7.196;2022-11-15T15:25:42;13.10;1.00
1049;DHT22;513;51.444;7.196;2022-11-15T15:28:11;13.10;1.00
1049;DHT22;513;51.444;7.196;2022-11-15T15:30:37;13.10;1.00
1049;DHT22;513;51.444;7.196;2022-11-15T15:33:05;13.00;1.00
1049;DHT22;513;51.444;7.196;2022-11-15T15:35:33;13.00;1.00
1049;DHT22;513;51.444;7.196;2022-11-15T15:38:01;13.00;1.00
1049;DHT22;513;51.444;7.196;2022-11-15T15:40:28;13.00;1.00
1049;DHT22;513;51.444;7.196;2022-11-15T15:42:55;13.00;1.00
1049;DHT22;513;51.444;7.196;2022-11-15T15:45:22;13.00;1.00
1049;DHT22;513;51.444;7.196;2022-11-15T15:47:51;13.00;1.30
1049;DHT22;513;51.444;7.196;2022-11-15T15:50:21;13.00;61.60
1049;DHT22;513;51.444;7.196;2022-11-15T15:52:49;13.00;88.50
1049;DHT22;513;51.444;7.196;2022-11-15T15:55:15;13.00;95.90
1049;DHT22;513;51.444;7.196;2022-11-15T15:57:42;13.00;99.90
1049;DHT22;513;51.444;7.196;2022-11-15T16:00:10;13.00;99.90
1049;DHT22;513;51.444;7.196;2022-11-15T16:02:37;13.00;99.90
1049;DHT22;513;51.444;7.196;2022-11-15T16:05:04;13.00;99.90
1049;DHT22;513;51.444;7.196;2022-11-15T16:07:32;13.00;99.90
1049;DHT22;513;51.444;7.196;2022-11-15T16:09:59;13.00;99.90
1049;DHT22;513;51.444;7.196;2022-11-15T16:12:26;13.00;99.90
1049;DHT22;513;51.444;7.196;2022-11-15T16:14:53;13.00;99.90
1049;DHT22;513;51.444;7.196;2022-11-15T16:17:21;13.00;99.90
1049;DHT22;513;51.444;7.196;2022-11-15T16:19:48;13.00;1.00
1049;DHT22;513;51.444;7.196;2022-11-15T16:22:15;13.00;1.00
1049;DHT22;513;51.444;7.196;2022-11-15T16:24:43;13.00;1.60
1049;DHT22;513;51.444;7.196;2022-11-15T16:27:13;13.00;92.90
1049;DHT22;513;51.444;7.196;2022-11-15T16:29:40;13.00;99.90
1049;DHT22;513;51.444;7.196;2022-11-15T16:32:07;13.00;99.90
1049;DHT22;513;51.444;7.196;2022-11-15T16:34:33;13.00;99.90
1049;DHT22;513;51.444;7.196;2022-11-15T16:37:00;13.00;1.00
1049;DHT22;513;51.444;7.196;2022-11-15T16:39:27;13.00;1.00
1049;DHT22;513;51.444;7.196;2022-11-15T16:41:56;13.00;1.00
1049;DHT22;513;51.444;7.196;2022-11-15T16:44:23;13.00;1.00
1049;DHT22;513;51.444;7.196;2022-11-15T16:46:50;13.00;1.00
1049;DHT22;513;51.444;7.196;2022-11-15T16:49:18;13.00;1.00
1049;DHT22;513;51.444;7.196;2022-11-15T16:51:45;13.00;1.00
1049;DHT22;513;51.444;7.196;2022-11-15T16:54:12;13.00;99.90
1049;DHT22;513;51.444;7.196;2022-11-15T16:56:39;13.00;99.90
1049;DHT22;513;51.444;7.196;2022-11-15T16:59:10;13.00;99.90
1049;DHT22;513;51.444;7.196;2022-11-15T17:01:40;13.10;27.80